Hlavní strana
METAR-TAF:

METAR-TAF

Letiště :

Laupheim, Německo

zeměpisná šířka: 48-13N, zeměpisná délka: 009-55E, výška: 538 m

Aktuální stav počasí

Zpráva byla vytvořena před 43 minutami, v 13:20 UTC
Východoseverovýchodní vítr 19 kt
Teplota -1°C
Vlhkost vzduchu 46%
Tlak 1015 hPa
Viditelnost 10 km a více
Skoro jasno ve výšce 22000 ft
nízko zvířený sníh

METAR: ETHL 241320Z 07019KT 9999 DRSN FEW220 M01/M11 Q1015 BLU+

Čas: 15:03 (14:03 UTC)

Předpověď počasí

Zpráva byla vytvořena před 27 hodinami a 12 minutami, v 10:51 UTC
Předpověď platná od 23 v 09 UTC do 23 v 18 UTC
Východoseverovýchodní vítr 10 kt s nárazy do 25 kt
Viditelnost: 1100 m
Zataženo ve výšce 1200 ft

TAF: ETHL 231051Z 2309/2318 06010G25KT 9000 NSW OVC012 CANCEL 1100

Stav a předpovědi počasí z více než 4 000 letišť (zprávy METAR a TAF).

Červené a žluté tečky na mapě představují dostupné meteorologické stanice.

Když kurzor umístíte na tečku, zobrazí se název stanice.

Pak kliknutím zobrazíte stav a předpověď počasí.

Chcete-li změnit mapu, kliknutím na zelené tlačítko se znaménkem +mapu přiblížíte, kliknutím na zelené tlačítko se znaménkem – mapu oddálíte a kliknutím na zelené šipky přejdete na sousední mapy.


METAR-TAF: